sensor_id;sensor_type;location;lat;lon;timestamp;pressure;altitude;pressure_sealevel;temperature;humidity
26775;BME280;14362;51.902;7.626;2024-03-25T00:00:11;100076.72;;;4.72;88.04
26775;BME280;14362;51.902;7.626;2024-03-25T00:04:13;100080.22;;;4.73;88.47
26775;BME280;14362;51.902;7.626;2024-03-25T00:08:14;100091.50;;;4.73;88.47
26775;BME280;14362;51.902;7.626;2024-03-25T00:12:16;100095.91;;;4.71;88.17
26775;BME280;14362;51.902;7.626;2024-03-25T00:16:18;100088.06;;;4.68;88.66
26775;BME280;14362;51.902;7.626;2024-03-25T00:20:20;100103.78;;;4.64;89.01
26775;BME280;14362;51.902;7.626;2024-03-25T00:24:21;100111.59;;;4.60;88.88
26775;BME280;14362;51.902;7.626;2024-03-25T00:28:22;100101.19;;;4.59;89.92
26775;BME280;14362;51.902;7.626;2024-03-25T00:32:24;100098.56;;;4.60;89.80
26775;BME280;14362;51.902;7.626;2024-03-25T00:36:26;100098.59;;;4.59;89.79
26775;BME280;14362;51.902;7.626;2024-03-25T00:40:27;100104.66;;;4.61;89.54
26775;BME280;14362;51.902;7.626;2024-03-25T00:44:29;100100.34;;;4.57;89.62
26775;BME280;14362;51.902;7.626;2024-03-25T00:48:32;100090.78;;;4.56;89.26
26775;BME280;14362;51.902;7.626;2024-03-25T00:52:33;100091.75;;;4.45;89.11
26775;BME280;14362;51.902;7.626;2024-03-25T00:56:35;100109.16;;;4.40;90.01
26775;BME280;14362;51.902;7.626;2024-03-25T01:00:37;100097.81;;;4.44;89.40
26775;BME280;14362;51.902;7.626;2024-03-25T01:04:40;100110.88;;;4.43;89.53
26775;BME280;14362;51.902;7.626;2024-03-25T01:08:41;100105.63;;;4.44;90.04
26775;BME280;14362;51.902;7.626;2024-03-25T01:12:43;100106.50;;;4.48;90.26
26775;BME280;14362;51.902;7.626;2024-03-25T01:16:44;100109.09;;;4.48;89.96
26775;BME280;14362;51.902;7.626;2024-03-25T01:20:47;100110.84;;;4.49;89.69
26775;BME280;14362;51.902;7.626;2024-03-25T01:24:50;100106.47;;;4.51;89.12
26775;BME280;14362;51.902;7.626;2024-03-25T01:28:51;100101.25;;;4.51;89.22
26775;BME280;14362;51.902;7.626;2024-03-25T01:32:52;100109.16;;;4.40;89.69
26775;BME280;14362;51.902;7.626;2024-03-25T01:36:54;100103.09;;;4.35;89.10
26775;BME280;14362;51.902;7.626;2024-03-25T01:41:07;100099.66;;;4.27;89.99
26775;BME280;14362;51.902;7.626;2024-03-25T01:45:08;100108.38;;;4.21;90.22
26775;BME280;14362;51.902;7.626;2024-03-25T01:49:11;100106.69;;;4.14;90.11
26775;BME280;14362;51.902;7.626;2024-03-25T01:53:14;100104.94;;;4.18;90.31
26775;BME280;14362;51.902;7.626;2024-03-25T01:57:16;100106.66;;;4.20;90.37
26775;BME280;14362;51.902;7.626;2024-03-25T02:01:18;100114.47;;;4.25;89.42
26775;BME280;14362;51.902;7.626;2024-03-25T02:05:21;100117.03;;;4.26;90.46
26775;BME280;14362;51.902;7.626;2024-03-25T02:09:24;100122.25;;;4.28;89.57
26775;BME280;14362;51.902;7.626;2024-03-25T02:13:26;100123.94;;;4.32;90.10
26775;BME280;14362;51.902;7.626;2024-03-25T02:17:26;100127.44;;;4.34;89.58
26775;BME280;14362;51.902;7.626;2024-03-25T02:21:28;100130.91;;;4.33;89.57
26775;BME280;14362;51.902;7.626;2024-03-25T02:25:32;100127.44;;;4.31;90.12
26775;BME280;14362;51.902;7.626;2024-03-25T02:29:36;100126.59;;;4.29;90.14
26775;BME280;14362;51.902;7.626;2024-03-25T02:33:37;100133.56;;;4.22;89.86
26775;BME280;14362;51.902;7.626;2024-03-25T02:37:39;100128.38;;;4.16;90.60
26775;BME280;14362;51.902;7.626;2024-03-25T02:41:41;100132.78;;;4.09;90.36
26775;BME280;14362;51.902;7.626;2024-03-25T02:45:44;100142.34;;;4.06;90.96
26775;BME280;14362;51.902;7.626;2024-03-25T02:49:46;100144.09;;;4.05;90.67
26775;BME280;14362;51.902;7.626;2024-03-25T02:53:47;100132.81;;;3.97;90.59
26775;BME280;14362;51.902;7.626;2024-03-25T02:57:49;100137.19;;;3.95;90.92
26775;BME280;14362;51.902;7.626;2024-03-25T03:01:52;100132.84;;;3.95;90.44
26775;BME280;14362;51.902;7.626;2024-03-25T03:05:53;100156.25;;;3.99;90.89
26775;BME280;14362;51.902;7.626;2024-03-25T03:09:54;100142.38;;;4.03;90.83
26775;BME280;14362;51.902;7.626;2024-03-25T03:13:55;100150.13;;;4.09;90.48
26775;BME280;14362;51.902;7.626;2024-03-25T03:17:58;100146.66;;;4.10;90.64
26775;BME280;14362;51.902;7.626;2024-03-25T03:21:59;100150.97;;;4.12;89.87
26775;BME280;14362;51.902;7.626;2024-03-25T03:26:00;100148.38;;;4.12;88.85
26775;BME280;14362;51.902;7.626;2024-03-25T03:30:02;100161.38;;;4.20;89.12
26775;BME280;14362;51.902;7.626;2024-03-25T03:34:05;100152.72;;;4.13;88.99
26775;BME280;14362;51.902;7.626;2024-03-25T03:38:05;100159.66;;;4.11;88.79
26775;BME280;14362;51.902;7.626;2024-03-25T03:42:07;100155.31;;;4.15;88.75
26775;BME280;14362;51.902;7.626;2024-03-25T03:46:09;100155.34;;;4.10;89.34
26775;BME280;14362;51.902;7.626;2024-03-25T03:50:11;100151.00;;;4.09;89.55
26775;BME280;14362;51.902;7.626;2024-03-25T03:54:13;100157.97;;;4.10;88.67
26775;BME280;14362;51.902;7.626;2024-03-25T03:58:14;100162.28;;;4.11;89.48
26775;BME280;14362;51.902;7.626;2024-03-25T04:02:16;100161.41;;;4.12;89.15
26775;BME280;14362;51.902;7.626;2024-03-25T04:06:18;100176.16;;;4.13;89.54
26775;BME280;14362;51.902;7.626;2024-03-25T04:10:20;100167.50;;;4.13;89.91
26775;BME280;14362;51.902;7.626;2024-03-25T04:14:21;100168.34;;;4.15;89.99
26775;BME280;14362;51.902;7.626;2024-03-25T04:18:23;100165.75;;;4.12;89.35
26775;BME280;14362;51.902;7.626;2024-03-25T04:22:25;100166.63;;;4.11;89.59
26775;BME280;14362;51.902;7.626;2024-03-25T04:26:27;100173.56;;;4.12;89.74
26775;BME280;14362;51.902;7.626;2024-03-25T04:30:28;100168.34;;;4.15;90.01
26775;BME280;14362;51.902;7.626;2024-03-25T04:34:30;100170.09;;;4.15;89.80
26775;BME280;14362;51.902;7.626;2024-03-25T04:38:32;100161.41;;;4.16;89.69
26775;BME280;14362;51.902;7.626;2024-03-25T04:42:33;100162.28;;;4.13;90.13
26775;BME280;14362;51.902;7.626;2024-03-25T04:46:33;100157.94;;;4.12;90.28
26775;BME280;14362;51.902;7.626;2024-03-25T04:50:34;100158.84;;;4.08;89.91
26775;BME280;14362;51.902;7.626;2024-03-25T04:54:36;100162.31;;;4.07;89.65
26775;BME280;14362;51.902;7.626;2024-03-25T04:58:36;100177.06;;;4.06;90.37
26775;BME280;14362;51.902;7.626;2024-03-25T05:02:37;100183.13;;;4.08;90.39
26775;BME280;14362;51.902;7.626;2024-03-25T05:06:37;100186.59;;;4.09;89.98
26775;BME280;14362;51.902;7.626;2024-03-25T05:10:39;100188.34;;;4.08;89.98
26775;BME280;14362;51.902;7.626;2024-03-25T05:14:40;100188.34;;;4.08;91.03
26775;BME280;14362;51.902;7.626;2024-03-25T05:18:40;100199.63;;;4.10;90.33
26775;BME280;14362;51.902;7.626;2024-03-25T05:22:41;100198.75;;;4.11;90.63
26775;BME280;14362;51.902;7.626;2024-03-25T05:26:43;100200.50;;;4.11;90.83
26775;BME280;14362;51.902;7.626;2024-03-25T05:30:43;100208.28;;;4.14;90.10
26775;BME280;14362;51.902;7.626;2024-03-25T05:34:44;100202.22;;;4.09;89.93
26775;BME280;14362;51.902;7.626;2024-03-25T05:38:44;100204.84;;;4.10;90.83
26775;BME280;14362;51.902;7.626;2024-03-25T05:42:46;100209.16;;;4.10;90.67
26775;BME280;14362;51.902;7.626;2024-03-25T05:46:47;100202.22;;;4.07;90.10
26775;BME280;14362;51.902;7.626;2024-03-25T05:50:57;100207.44;;;4.07;90.25
26775;BME280;14362;51.902;7.626;2024-03-25T05:54:57;100212.66;;;4.07;90.06
26775;BME280;14362;51.902;7.626;2024-03-25T05:58:59;100216.13;;;4.09;90.07
26775;BME280;14362;51.902;7.626;2024-03-25T06:03:00;100217.84;;;4.13;90.45
26775;BME280;14362;51.902;7.626;2024-03-25T06:07:01;100212.63;;;4.15;90.60
26775;BME280;14362;51.902;7.626;2024-03-25T06:11:01;100213.50;;;4.12;90.44
26775;BME280;14362;51.902;7.626;2024-03-25T06:15:04;100216.09;;;4.20;90.29
26775;BME280;14362;51.902;7.626;2024-03-25T06:19:05;100213.47;;;4.25;89.59
26775;BME280;14362;51.902;7.626;2024-03-25T06:23:05;100223.00;;;4.29;90.01
26775;BME280;14362;51.902;7.626;2024-03-25T06:27:07;100231.69;;;4.33;89.79
26775;BME280;14362;51.902;7.626;2024-03-25T06:31:09;100234.25;;;4.36;89.21
26775;BME280;14362;51.902;7.626;2024-03-25T06:35:28;100242.03;;;4.43;89.36
26775;BME280;14362;51.902;7.626;2024-03-25T06:39:28;100231.59;;;4.45;88.51
26775;BME280;14362;51.902;7.626;2024-03-25T06:43:29;100238.53;;;4.48;89.00
26775;BME280;14362;51.902;7.626;2024-03-25T06:47:31;100241.13;;;4.55;88.55
26775;BME280;14362;51.902;7.626;2024-03-25T06:51:31;100241.94;;;4.67;87.99
26775;BME280;14362;51.902;7.626;2024-03-25T06:55:32;100228.88;;;4.71;87.66
26775;BME280;14362;51.902;7.626;2024-03-25T06:59:32;100237.50;;;4.79;87.29
26775;BME280;14362;51.902;7.626;2024-03-25T07:03:35;100240.94;;;4.88;87.32
26775;BME280;14362;51.902;7.626;2024-03-25T07:07:35;100233.03;;;5.00;86.89
26775;BME280;14362;51.902;7.626;2024-03-25T07:11:36;100237.31;;;5.09;86.29
26775;BME280;14362;51.902;7.626;2024-03-25T07:15:37;100237.31;;;5.09;86.25
26775;BME280;14362;51.902;7.626;2024-03-25T07:19:39;100245.19;;;5.03;85.76
26775;BME280;14362;51.902;7.626;2024-03-25T07:23:39;100248.66;;;5.06;85.80
26775;BME280;14362;51.902;7.626;2024-03-25T07:27:40;100246.84;;;5.13;86.05
26775;BME280;14362;51.902;7.626;2024-03-25T07:31:40;100251.16;;;5.19;86.04
26775;BME280;14362;51.902;7.626;2024-03-25T07:35:42;100246.78;;;5.25;85.98
26775;BME280;14362;51.902;7.626;2024-03-25T07:39:42;100256.28;;;5.31;85.76
26775;BME280;14362;51.902;7.626;2024-03-25T07:43:46;100258.81;;;5.40;85.45
26775;BME280;14362;51.902;7.626;2024-03-25T07:47:46;100260.47;;;5.51;85.08
26775;BME280;14362;51.902;7.626;2024-03-25T07:51:48;100264.75;;;5.61;85.12
26775;BME280;14362;51.902;7.626;2024-03-25T07:55:48;100264.63;;;5.72;84.92
26775;BME280;14362;51.902;7.626;2024-03-25T07:59:49;100260.22;;;5.80;84.34
26775;BME280;14362;51.902;7.626;2024-03-25T08:03:50;100262.69;;;5.92;84.42
26775;BME280;14362;51.902;7.626;2024-03-25T08:07:51;100263.47;;;6.04;83.65
26775;BME280;14362;51.902;7.626;2024-03-25T08:11:52;100267.69;;;6.17;82.38
26775;BME280;14362;51.902;7.626;2024-03-25T08:15:52;100264.91;;;6.31;81.83
26775;BME280;14362;51.902;7.626;2024-03-25T08:19:53;100268.50;;;6.24;81.01
26775;BME280;14362;51.902;7.626;2024-03-25T08:23:55;100267.66;;;6.22;81.71
26775;BME280;14362;51.902;7.626;2024-03-25T08:27:56;100262.34;;;6.28;81.28
26775;BME280;14362;51.902;7.626;2024-03-25T08:31:56;100256.88;;;6.47;81.11
26775;BME280;14362;51.902;7.626;2024-03-25T08:35:57;100265.41;;;6.64;79.92
26775;BME280;14362;51.902;7.626;2024-03-25T08:39:59;100254.72;;;6.80;78.86
26775;BME280;14362;51.902;7.626;2024-03-25T08:43:59;100259.06;;;6.79;77.69
26775;BME280;14362;51.902;7.626;2024-03-25T08:47:59;100246.75;;;6.86;78.71
26775;BME280;14362;51.902;7.626;2024-03-25T08:52:00;100255.41;;;6.91;78.81
26775;BME280;14362;51.902;7.626;2024-03-25T08:56:02;100252.09;;;6.81;77.63
26775;BME280;14362;51.902;7.626;2024-03-25T09:00:04;100243.31;;;6.84;77.22
26775;BME280;14362;51.902;7.626;2024-03-25T09:04:05;100256.34;;;6.87;77.91
26775;BME280;14362;51.902;7.626;2024-03-25T09:08:06;100249.97;;;7.05;77.56
26775;BME280;14362;51.902;7.626;2024-03-25T09:12:08;100246.22;;;7.23;74.99
26775;BME280;14362;51.902;7.626;2024-03-25T09:16:08;100245.91;;;7.43;74.62
26775;BME280;14362;51.902;7.626;2024-03-25T09:20:10;100246.44;;;7.64;74.11
26775;BME280;14362;51.902;7.626;2024-03-25T09:24:10;100247.09;;;7.75;69.63
26775;BME280;14362;51.902;7.626;2024-03-25T09:28:12;100257.25;;;7.94;72.68
26775;BME280;14362;51.902;7.626;2024-03-25T09:32:13;100251.72;;;8.09;73.49
26775;BME280;14362;51.902;7.626;2024-03-25T09:36:13;100248.03;;;8.18;71.95
26775;BME280;14362;51.902;7.626;2024-03-25T09:40:14;100258.56;;;8.16;70.36
26775;BME280;14362;51.902;7.626;2024-03-25T09:44:17;100255.25;;;8.06;70.38
26775;BME280;14362;51.902;7.626;2024-03-25T09:48:21;100249.25;;;8.01;69.23
26775;BME280;14362;51.902;7.626;2024-03-25T09:52:22;100244.44;;;7.78;69.54
26775;BME280;14362;51.902;7.626;2024-03-25T09:56:22;100243.53;;;7.78;68.58
26775;BME280;14362;51.902;7.626;2024-03-25T10:00:24;100239.84;;;7.88;69.02
26775;BME280;14362;51.902;7.626;2024-03-25T10:04:25;100244.41;;;8.25;67.01
26775;BME280;14362;51.902;7.626;2024-03-25T10:08:25;100235.97;;;8.54;63.21
26775;BME280;14362;51.902;7.626;2024-03-25T10:12:26;100243.34;;;8.78;64.04
26775;BME280;14362;51.902;7.626;2024-03-25T10:16:28;100224.34;;;8.66;63.17
26775;BME280;14362;51.902;7.626;2024-03-25T10:20:28;100231.50;;;8.60;62.92
26775;BME280;14362;51.902;7.626;2024-03-25T10:24:37;100234.63;;;8.76;61.80
26775;BME280;14362;51.902;7.626;2024-03-25T10:28:37;100236.09;;;8.87;59.92
26775;BME280;14362;51.902;7.626;2024-03-25T10:32:39;100223.56;;;9.00;60.30
26775;BME280;14362;51.902;7.626;2024-03-25T10:36:39;100220.03;;;9.01;60.57
26775;BME280;14362;51.902;7.626;2024-03-25T10:40:40;100236.84;;;8.93;60.61
26775;BME280;14362;51.902;7.626;2024-03-25T10:44:41;100230.28;;;9.12;60.61
26775;BME280;14362;51.902;7.626;2024-03-25T10:48:48;100229.28;;;9.18;60.43
26775;BME280;14362;51.902;7.626;2024-03-25T10:52:53;100223.94;;;9.21;60.27
26775;BME280;14362;51.902;7.626;2024-03-25T10:56:54;100219.44;;;9.26;58.12
26775;BME280;14362;51.902;7.626;2024-03-25T11:00:55;100221.31;;;9.21;59.96
26775;BME280;14362;51.902;7.626;2024-03-25T11:04:57;100218.13;;;9.08;60.23
26775;BME280;14362;51.902;7.626;2024-03-25T11:08:58;100205.41;;;9.27;60.46
26775;BME280;14362;51.902;7.626;2024-03-25T11:13:00;100202.31;;;9.46;59.01
26775;BME280;14362;51.902;7.626;2024-03-25T11:17:01;100189.03;;;9.83;58.55
26775;BME280;14362;51.902;7.626;2024-03-25T11:21:04;100179.56;;;10.09;58.91
26775;BME280;14362;51.902;7.626;2024-03-25T11:25:05;100170.66;;;10.15;57.00
26775;BME280;14362;51.902;7.626;2024-03-25T11:29:07;100168.03;;;10.13;55.91
26775;BME280;14362;51.902;7.626;2024-03-25T11:33:07;100177.66;;;10.14;55.64
26775;BME280;14362;51.902;7.626;2024-03-25T11:37:09;100164.22;;;10.23;55.16
26775;BME280;14362;51.902;7.626;2024-03-25T11:41:10;100158.84;;;10.28;52.77
26775;BME280;14362;51.902;7.626;2024-03-25T11:45:14;100157.78;;;10.34;53.48
26775;BME280;14362;51.902;7.626;2024-03-25T11:49:16;100142.50;;;10.48;54.39
26775;BME280;14362;51.902;7.626;2024-03-25T11:53:21;100145.56;;;10.61;54.44
26775;BME280;14362;51.902;7.626;2024-03-25T11:57:22;100135.19;;;10.85;54.91
26775;BME280;14362;51.902;7.626;2024-03-25T12:01:22;100128.00;;;10.90;52.38
26775;BME280;14362;51.902;7.626;2024-03-25T12:05:23;100132.31;;;10.93;53.51
26775;BME280;14362;51.902;7.626;2024-03-25T12:09:25;100129.75;;;10.89;52.85
26775;BME280;14362;51.902;7.626;2024-03-25T12:13:44;100128.00;;;10.90;51.86
26775;BME280;14362;51.902;7.626;2024-03-25T12:17:45;100123.50;;;10.94;52.38
26775;BME280;14362;51.902;7.626;2024-03-25T12:21:46;100115.03;;;11.11;53.09
26775;BME280;14362;51.902;7.626;2024-03-25T12:25:49;100112.72;;;11.01;51.13
26775;BME280;14362;51.902;7.626;2024-03-25T12:29:57;100100.94;;;11.12;52.51
26775;BME280;14362;51.902;7.626;2024-03-25T12:33:58;100098.56;;;11.29;52.16
26775;BME280;14362;51.902;7.626;2024-03-25T12:37:58;100079.38;;;11.51;52.71
26775;BME280;14362;51.902;7.626;2024-03-25T12:42:03;100076.25;;;11.63;49.36
26775;BME280;14362;51.902;7.626;2024-03-25T12:46:04;100074.16;;;11.49;49.55
26775;BME280;14362;51.902;7.626;2024-03-25T12:50:05;100068.31;;;11.65;49.77
26775;BME280;14362;51.902;7.626;2024-03-25T12:54:06;100056.94;;;11.86;50.86
26775;BME280;14362;51.902;7.626;2024-03-25T12:58:08;100069.19;;;12.13;48.83
26775;BME280;14362;51.902;7.626;2024-03-25T13:02:10;100057.06;;;12.07;44.05
26775;BME280;14362;51.902;7.626;2024-03-25T13:06:11;100055.25;;;11.85;47.25
26775;BME280;14362;51.902;7.626;2024-03-25T13:10:12;100045.59;;;11.61;48.04
26775;BME280;14362;51.902;7.626;2024-03-25T13:14:14;100052.84;;;11.30;46.14
26775;BME280;14362;51.902;7.626;2024-03-25T13:18:14;100047.44;;;11.10;47.81
26775;BME280;14362;51.902;7.626;2024-03-25T13:22:15;100039.81;;;11.02;49.24
26775;BME280;14362;51.902;7.626;2024-03-25T13:26:16;100034.69;;;11.23;49.61
26775;BME280;14362;51.902;7.626;2024-03-25T13:30:17;100029.56;;;11.67;44.68
26775;BME280;14362;51.902;7.626;2024-03-25T13:34:18;100016.94;;;11.75;42.41
26775;BME280;14362;51.902;7.626;2024-03-25T13:38:18;100010.19;;;11.68;44.87
26775;BME280;14362;51.902;7.626;2024-03-25T13:42:19;100008.34;;;11.70;43.94
26775;BME280;14362;51.902;7.626;2024-03-25T13:46:21;100013.00;;;11.40;47.80
26775;BME280;14362;51.902;7.626;2024-03-25T13:50:21;99997.63;;;11.51;47.24
26775;BME280;14362;51.902;7.626;2024-03-25T13:54:22;100003.94;;;11.47;45.13
26775;BME280;14362;51.902;7.626;2024-03-25T13:58:22;100005.75;;;11.68;47.09
26775;BME280;14362;51.902;7.626;2024-03-25T14:02:24;100004.38;;;11.82;48.47
26775;BME280;14362;51.902;7.626;2024-03-25T14:06:25;100003.06;;;12.16;46.25
26775;BME280;14362;51.902;7.626;2024-03-25T14:10:26;99999.63;;;12.14;46.64
26775;BME280;14362;51.902;7.626;2024-03-25T14:14:26;99993.00;;;12.03;45.10
26775;BME280;14362;51.902;7.626;2024-03-25T14:18:28;99984.31;;;12.01;43.85
26775;BME280;14362;51.902;7.626;2024-03-25T14:22:29;99978.34;;;12.18;48.47
26775;BME280;14362;51.902;7.626;2024-03-25T14:26:29;99974.63;;;12.45;45.12
26775;BME280;14362;51.902;7.626;2024-03-25T14:30:30;99978.06;;;12.47;44.08
26775;BME280;14362;51.902;7.626;2024-03-25T14:34:32;99961.16;;;12.51;42.18
26775;BME280;14362;51.902;7.626;2024-03-25T14:38:32;99959.25;;;12.34;42.71
26775;BME280;14362;51.902;7.626;2024-03-25T14:42:33;99945.31;;;12.51;46.10
26775;BME280;14362;51.902;7.626;2024-03-25T14:46:34;99943.28;;;12.58;44.62
26775;BME280;14362;51.902;7.626;2024-03-25T14:50:35;99934.06;;;12.25;44.66
26775;BME280;14362;51.902;7.626;2024-03-25T14:54:37;99935.44;;;12.13;45.91
26775;BME280;14362;51.902;7.626;2024-03-25T14:58:38;99922.44;;;12.09;45.37
26775;BME280;14362;51.902;7.626;2024-03-25T15:02:38;99930.34;;;12.09;46.20
26775;BME280;14362;51.902;7.626;2024-03-25T15:06:40;99921.16;;;12.40;45.16
26775;BME280;14362;51.902;7.626;2024-03-25T15:10:40;99913.88;;;12.65;42.22
26775;BME280;14362;51.902;7.626;2024-03-25T15:14:41;99909.06;;;12.34;41.34
26775;BME280;14362;51.902;7.626;2024-03-25T15:18:42;99917.53;;;11.99;41.10
26775;BME280;14362;51.902;7.626;2024-03-25T15:22:44;99899.56;;;11.87;44.88
26775;BME280;14362;51.902;7.626;2024-03-25T15:26:44;99904.03;;;11.85;44.22
26775;BME280;14362;51.902;7.626;2024-03-25T15:30:46;99897.91;;;11.62;43.42
26775;BME280;14362;51.902;7.626;2024-03-25T15:34:46;99891.22;;;11.53;44.48
26775;BME280;14362;51.902;7.626;2024-03-25T15:38:48;99876.97;;;11.35;43.85
26775;BME280;14362;51.902;7.626;2024-03-25T15:42:49;99887.53;;;11.12;43.13
26775;BME280;14362;51.902;7.626;2024-03-25T15:46:49;99868.81;;;10.96;41.52
26775;BME280;14362;51.902;7.626;2024-03-25T15:50:50;99860.44;;;10.61;42.54
26775;BME280;14362;51.902;7.626;2024-03-25T15:54:52;99860.13;;;10.45;43.97
26775;BME280;14362;51.902;7.626;2024-03-25T15:58:52;99850.03;;;10.31;44.15
26775;BME280;14362;51.902;7.626;2024-03-25T16:02:53;99839.16;;;10.16;45.98
26775;BME280;14362;51.902;7.626;2024-03-25T16:06:53;99843.53;;;10.16;44.66
26775;BME280;14362;51.902;7.626;2024-03-25T16:10:55;99839.09;;;10.18;41.98
26775;BME280;14362;51.902;7.626;2024-03-25T16:14:58;99844.03;;;10.02;44.79
26775;BME280;14362;51.902;7.626;2024-03-25T16:18:59;99835.25;;;10.01;42.55
26775;BME280;14362;51.902;7.626;2024-03-25T16:23:00;99838.72;;;10.03;43.29
26775;BME280;14362;51.902;7.626;2024-03-25T16:27:02;99822.50;;;9.90;44.99
26775;BME280;14362;51.902;7.626;2024-03-25T16:31:03;99827.28;;;9.78;45.63
26775;BME280;14362;51.902;7.626;2024-03-25T16:35:06;99819.78;;;9.67;45.33
26775;BME280;14362;51.902;7.626;2024-03-25T16:39:07;99830.56;;;9.57;46.91
26775;BME280;14362;51.902;7.626;2024-03-25T16:43:09;99815.03;;;9.50;47.48
26775;BME280;14362;51.902;7.626;2024-03-25T16:47:10;99819.75;;;9.40;47.62
26775;BME280;14362;51.902;7.626;2024-03-25T16:51:10;99812.28;;;9.54;46.45
26775;BME280;14362;51.902;7.626;2024-03-25T16:55:11;99812.59;;;9.45;46.90
26775;BME280;14362;51.902;7.626;2024-03-25T16:59:13;99811.22;;;9.33;49.03
26775;BME280;14362;51.902;7.626;2024-03-25T17:03:14;99822.03;;;9.22;50.78
26775;BME280;14362;51.902;7.626;2024-03-25T17:07:14;99813.50;;;9.16;50.19
26775;BME280;14362;51.902;7.626;2024-03-25T17:11:15;99816.16;;;9.14;49.88
26775;BME280;14362;51.902;7.626;2024-03-25T17:15:17;99813.72;;;9.08;49.77
26775;BME280;14362;51.902;7.626;2024-03-25T17:19:17;99810.56;;;8.97;51.03
26775;BME280;14362;51.902;7.626;2024-03-25T17:23:18;99797.75;;;8.86;51.67
26775;BME280;14362;51.902;7.626;2024-03-25T17:27:18;99804.13;;;8.77;50.32
26775;BME280;14362;51.902;7.626;2024-03-25T17:31:20;99796.25;;;8.77;49.29
26775;BME280;14362;51.902;7.626;2024-03-25T17:35:20;99799.28;;;8.63;49.62
26775;BME280;14362;51.902;7.626;2024-03-25T17:39:22;99790.09;;;8.48;49.96
26775;BME280;14362;51.902;7.626;2024-03-25T17:43:23;99784.16;;;8.41;50.93
26775;BME280;14362;51.902;7.626;2024-03-25T17:47:25;99784.56;;;8.26;50.97
26775;BME280;14362;51.902;7.626;2024-03-25T17:51:25;99785.00;;;8.11;52.33
26775;BME280;14362;51.902;7.626;2024-03-25T17:55:26;99776.34;;;8.07;52.72
26775;BME280;14362;51.902;7.626;2024-03-25T17:59:27;99785.19;;;8.03;52.80
26775;BME280;14362;51.902;7.626;2024-03-25T18:03:29;99783.63;;;7.96;52.99
26775;BME280;14362;51.902;7.626;2024-03-25T18:07:29;99788.38;;;7.81;53.75
26775;BME280;14362;51.902;7.626;2024-03-25T18:11:30;99781.63;;;7.71;54.54
26775;BME280;14362;51.902;7.626;2024-03-25T18:15:30;99785.44;;;7.59;55.41
26775;BME280;14362;51.902;7.626;2024-03-25T18:19:32;99774.22;;;7.54;55.78
26775;BME280;14362;51.902;7.626;2024-03-25T18:23:33;99786.69;;;7.42;56.61
26775;BME280;14362;51.902;7.626;2024-03-25T18:27:33;99781.59;;;7.38;56.10
26775;BME280;14362;51.902;7.626;2024-03-25T18:31:34;99771.25;;;7.32;56.54
26775;BME280;14362;51.902;7.626;2024-03-25T18:35:36;99774.72;;;7.32;56.11
26775;BME280;14362;51.902;7.626;2024-03-25T18:39:37;99767.19;;;7.20;57.61
26775;BME280;14362;51.902;7.626;2024-03-25T18:43:38;99778.72;;;7.11;57.27
26775;BME280;14362;51.902;7.626;2024-03-25T18:47:39;99776.09;;;7.11;56.01
26775;BME280;14362;51.902;7.626;2024-03-25T18:51:41;99772.81;;;7.03;56.37
26775;BME280;14362;51.902;7.626;2024-03-25T18:55:41;99772.88;;;7.00;56.84
26775;BME280;14362;51.902;7.626;2024-03-25T18:59:42;99764.34;;;6.91;56.91
26775;BME280;14362;51.902;7.626;2024-03-25T19:03:42;99761.97;;;6.79;58.12
26775;BME280;14362;51.902;7.626;2024-03-25T19:07:44;99762.91;;;6.76;57.74
26775;BME280;14362;51.902;7.626;2024-03-25T19:11:45;99761.31;;;6.71;58.47
26775;BME280;14362;51.902;7.626;2024-03-25T19:15:45;99753.69;;;6.58;59.13
26775;BME280;14362;51.902;7.626;2024-03-25T19:19:46;99757.34;;;6.51;59.77
26775;BME280;14362;51.902;7.626;2024-03-25T19:23:48;99753.91;;;6.49;59.17
26775;BME280;14362;51.902;7.626;2024-03-25T19:27:48;99743.50;;;6.46;58.80
26775;BME280;14362;51.902;7.626;2024-03-25T19:31:49;99734.91;;;6.41;59.10
26775;BME280;14362;51.902;7.626;2024-03-25T19:35:50;99740.25;;;6.35;59.86
26775;BME280;14362;51.902;7.626;2024-03-25T19:39:51;99738.63;;;6.29;59.95
26775;BME280;14362;51.902;7.626;2024-03-25T19:43:52;99732.59;;;6.25;60.04
26775;BME280;14362;51.902;7.626;2024-03-25T19:47:53;99723.97;;;6.22;59.50
26775;BME280;14362;51.902;7.626;2024-03-25T19:51:53;99718.78;;;6.20;59.91
26775;BME280;14362;51.902;7.626;2024-03-25T19:55:58;99723.28;;;6.12;59.72
26775;BME280;14362;51.902;7.626;2024-03-25T19:59:59;99726.81;;;6.09;59.97
26775;BME280;14362;51.902;7.626;2024-03-25T20:03:59;99717.38;;;6.02;60.50
26775;BME280;14362;51.902;7.626;2024-03-25T20:08:00;99715.69;;;6.00;61.02
26775;BME280;14362;51.902;7.626;2024-03-25T20:12:02;99718.19;;;6.04;60.34
26775;BME280;14362;51.902;7.626;2024-03-25T20:16:03;99716.66;;;5.92;60.67
26775;BME280;14362;51.902;7.626;2024-03-25T20:20:05;99703.59;;;5.94;60.23
26775;BME280;14362;51.902;7.626;2024-03-25T20:24:06;99705.41;;;5.90;60.74
26775;BME280;14362;51.902;7.626;2024-03-25T20:28:08;99692.22;;;5.95;59.73
26775;BME280;14362;51.902;7.626;2024-03-25T20:32:08;99706.19;;;5.94;59.37
26775;BME280;14362;51.902;7.626;2024-03-25T20:36:09;99701.06;;;5.89;59.82
26775;BME280;14362;51.902;7.626;2024-03-25T20:40:10;99704.50;;;5.91;59.51
26775;BME280;14362;51.902;7.626;2024-03-25T20:44:12;99701.75;;;5.98;59.27
26775;BME280;14362;51.902;7.626;2024-03-25T20:48:13;99699.22;;;5.94;59.38
26775;BME280;14362;51.902;7.626;2024-03-25T20:52:13;99690.59;;;5.89;60.13
26775;BME280;14362;51.902;7.626;2024-03-25T20:56:14;99701.16;;;5.83;60.10
26775;BME280;14362;51.902;7.626;2024-03-25T21:00:16;99693.25;;;5.88;59.93
26775;BME280;14362;51.902;7.626;2024-03-25T21:04:17;99694.31;;;5.77;60.91
26775;BME280;14362;51.902;7.626;2024-03-25T21:08:18;99681.28;;;5.76;60.92
26775;BME280;14362;51.902;7.626;2024-03-25T21:12:18;99679.56;;;5.75;60.98
26775;BME280;14362;51.902;7.626;2024-03-25T21:16:20;99672.56;;;5.75;61.27
26775;BME280;14362;51.902;7.626;2024-03-25T21:20:20;99668.25;;;5.74;61.41